Time;durP1;ratioP1;P1;durP2;ratioP2;P2;SDS_P1;SDS_P2;PMS_P1;PMS_P2;Temp;Humidity;BMP_temperature;BMP_pressure;BME280_temperature;BME280_humidity;BME280_pressure;Samples;Min_cycle;Max_cycle;Signal;HPM_P1;HPM_P2
2023/07/23 00:02:03;;;;;;;7.25;4.07;;;;;;;-145.41;100.00;58600.66;5006336;28;20060;-78
2023/07/23 00:04:29;;;;;;;6.07;3.85;;;;;;;-145.41;100.00;58600.66;5003877;28;20034;-77
2023/07/23 00:06:54;;;;;;;8.20;4.07;;;;;;;-145.41;100.00;58600.66;5005499;28;20095;-77
2023/07/23 00:09:20;;;;;;;5.25;3.50;;;;;;;-145.41;100.00;58600.66;5006461;28;20034;-78
2023/07/23 00:11:45;;;;;;;6.20;4.28;;;;;;;-145.41;100.00;58600.66;5004587;28;20120;-78
2023/07/23 00:14:10;;;;;;;6.28;3.88;;;;;;;-145.41;100.00;58600.66;5002471;28;20100;-77
2023/07/23 00:16:35;;;;;;;6.32;3.72;;;;;;;-145.41;100.00;58600.66;5003636;28;20046;-78
2023/07/23 00:19:01;;;;;;;7.38;4.18;;;;;;;-145.41;100.00;58600.66;5001136;28;20049;-78
2023/07/23 00:21:26;;;;;;;6.60;3.92;;;;;;;-145.41;100.00;58600.66;5003913;28;20029;-77
2023/07/23 00:23:51;;;;;;;6.82;4.00;;;;;;;-145.41;100.00;58600.66;5003652;28;20034;-78
2023/07/23 00:26:17;;;;;;;7.68;4.15;;;;;;;-145.41;100.00;58600.66;5004152;28;20038;-78
2023/07/23 00:28:42;;;;;;;6.70;4.20;;;;;;;-145.41;100.00;58600.66;5003742;28;20041;-76
2023/07/23 00:31:07;;;;;;;5.45;3.78;;;;;;;-145.41;100.00;58600.66;5004046;28;20050;-78
2023/07/23 00:33:33;;;;;;;6.53;4.53;;;;;;;-145.41;100.00;58600.66;5002821;28;20042;-77
2023/07/23 00:35:58;;;;;;;7.25;5.03;;;;;;;-145.41;100.00;58600.66;5003869;28;20069;-77
2023/07/23 00:38:23;;;;;;;8.15;4.45;;;;;;;-145.41;100.00;58600.66;5001116;28;20062;-77
2023/07/23 00:40:49;;;;;;;5.63;3.92;;;;;;;-145.41;100.00;58600.66;5003390;28;20037;-77
2023/07/23 00:43:14;;;;;;;7.43;4.32;;;;;;;-145.41;100.00;58600.66;5003465;28;20033;-77
2023/07/23 00:45:39;;;;;;;6.78;4.50;;;;;;;-145.41;100.00;58600.66;5005183;28;20039;-78
2023/07/23 00:48:05;;;;;;;6.68;4.47;;;;;;;-145.41;100.00;58600.66;5000526;28;20045;-78
2023/07/23 00:50:30;;;;;;;6.95;3.70;;;;;;;-145.41;100.00;58600.66;5005425;28;20038;-77
2023/07/23 00:52:56;;;;;;;6.07;3.65;;;;;;;-145.41;100.00;58600.66;5002501;28;20095;-78
2023/07/23 00:55:22;;;;;;;6.00;4.00;;;;;;;-145.41;100.00;58600.66;4997967;28;20485;-77
2023/07/23 00:57:47;;;;;;;5.88;3.83;;;;;;;-145.41;100.00;58600.66;5004047;28;20033;-77
2023/07/23 01:00:13;;;;;;;7.57;4.28;;;;;;;-145.41;100.00;58600.66;5003636;28;20026;-77
2023/07/23 01:02:38;;;;;;;6.85;3.90;;;;;;;-145.41;100.00;58600.66;4997128;28;20061;-78
2023/07/23 01:05:05;;;;;;;5.70;3.90;;;;;;;-145.41;100.00;58600.66;5001381;28;20034;-78
2023/07/23 01:07:33;;;;;;;8.15;3.88;;;;;;;-145.41;100.00;58600.66;5005844;28;20066;-77
2023/07/23 01:10:00;;;;;;;6.38;4.05;;;;;;;-145.41;100.00;58600.66;5004293;28;20034;-78
2023/07/23 01:12:27;;;;;;;6.45;3.75;;;;;;;-145.41;100.00;58600.66;4986981;28;20501;-78
2023/07/23 01:14:52;;;;;;;4.80;3.35;;;;;;;-145.41;100.00;58600.66;4999483;28;20095;-77
2023/07/23 01:17:18;;;;;;;4.82;3.20;;;;;;;-145.41;100.00;58600.66;5001466;28;20042;-78
2023/07/23 01:19:44;;;;;;;5.68;3.83;;;;;;;-145.41;100.00;58600.66;5003501;28;20038;-78
2023/07/23 01:22:09;;;;;;;5.53;3.67;;;;;;;-145.41;100.00;58600.66;5001727;28;20109;-77
2023/07/23 01:24:35;;;;;;;5.45;3.63;;;;;;;-145.41;100.00;58600.66;5000680;28;20030;-77
2023/07/23 01:27:02;;;;;;;5.38;3.47;;;;;;;-145.41;100.00;58600.66;5003469;28;20044;-77
2023/07/23 01:29:28;;;;;;;6.40;4.05;;;;;;;-145.41;100.00;58600.66;4996510;28;20501;-77
2023/07/23 01:31:53;;;;;;;5.45;3.55;;;;;;;-145.41;100.00;58600.66;5003132;28;20029;-77
2023/07/23 01:34:19;;;;;;;8.00;4.03;;;;;;;-145.41;100.00;58600.66;5002208;28;20064;-77
2023/07/23 01:36:46;;;;;;;5.72;3.58;;;;;;;-145.41;100.00;58600.66;5001098;28;20080;-77
2023/07/23 01:39:12;;;;;;;5.80;3.30;;;;;;;-145.41;100.00;58600.66;5003515;28;20045;-78
2023/07/23 01:41:37;;;;;;;5.32;3.20;;;;;;;-145.41;100.00;58600.66;4999466;28;20026;-77
2023/07/23 01:44:05;;;;;;;4.80;3.00;;;;;;;-145.41;100.00;58600.66;5001095;28;20493;-77
2023/07/23 01:46:30;;;;;;;4.47;3.00;;;;;;;-145.41;100.00;58600.66;5002652;28;20041;-77
2023/07/23 01:48:56;;;;;;;6.72;3.72;;;;;;;-145.41;100.00;58600.66;4999298;28;20820;-77
2023/07/23 01:51:21;;;;;;;6.28;3.30;;;;;;;-145.41;100.00;58600.66;5004520;28;20116;-78
2023/07/23 01:53:47;;;;;;;5.45;2.97;;;;;;;-145.41;100.00;58600.66;5000470;28;20045;-78
2023/07/23 01:56:13;;;;;;;5.07;3.35;;;;;;;-145.41;100.00;58600.66;5001898;28;20034;-77
2023/07/23 01:58:38;;;;;;;5.70;3.38;;;;;;;-145.41;100.00;58600.66;4995563;28;20058;-78
2023/07/23 02:01:04;;;;;;;5.47;3.05;;;;;;;-145.41;100.00;58600.66;4998570;28;20119;-77
2023/07/23 02:03:30;;;;;;;5.03;3.53;;;;;;;-145.41;100.00;58600.66;5002357;28;20701;-77
2023/07/23 02:05:58;;;;;;;6.68;2.92;;;;;;;-145.41;100.00;58600.66;5002193;28;20030;-77
2023/07/23 02:08:23;;;;;;;4.85;3.20;;;;;;;-145.41;100.00;58600.66;4999479;28;20164;-78
2023/07/23 02:10:48;;;;;;;5.25;2.88;;;;;;;-145.41;100.00;58600.66;5000799;28;20094;-78
2023/07/23 02:13:14;;;;;;;4.47;2.80;;;;;;;-145.41;100.00;58600.66;5002328;28;20041;-78
2023/07/23 02:15:39;;;;;;;5.18;2.70;;;;;;;-145.41;100.00;58600.66;4992194;28;20646;-78
2023/07/23 02:18:04;;;;;;;4.95;2.80;;;;;;;-145.41;100.00;58600.66;4998398;28;20033;-78
2023/07/23 02:20:30;;;;;;;4.72;2.60;;;;;;;-145.41;100.00;58600.66;4994465;28;20113;-78
2023/07/23 02:22:56;;;;;;;4.68;2.55;;;;;;;-145.41;100.00;58600.66;5002190;28;20074;-77
2023/07/23 02:25:22;;;;;;;5.38;2.65;;;;;;;-145.41;100.00;58600.66;5002549;28;20026;-77
2023/07/23 02:27:47;;;;;;;4.22;2.20;;;;;;;-145.41;100.00;58600.66;4997330;28;20081;-77
2023/07/23 02:30:12;;;;;;;4.55;2.40;;;;;;;-145.41;100.00;58600.66;4999652;28;20025;-78
2023/07/23 02:32:38;;;;;;;3.95;2.10;;;;;;;-145.41;100.00;58600.66;4997588;28;20531;-78
2023/07/23 02:35:03;;;;;;;5.43;2.40;;;;;;;-145.41;100.00;58600.66;4997433;28;20041;-77
2023/07/23 02:37:29;;;;;;;4.38;2.15;;;;;;;-145.41;100.00;58600.66;4998846;28;20520;-78
2023/07/23 02:39:54;;;;;;;5.00;2.55;;;;;;;-145.41;100.00;58600.66;4997702;28;20035;-78
2023/07/23 02:42:19;;;;;;;3.78;2.33;;;;;;;-145.41;100.00;58600.66;5008846;28;20485;-78
2023/07/23 02:44:45;;;;;;;3.85;2.25;;;;;;;-145.41;100.00;58600.66;5004537;28;20489;-77
2023/07/23 02:47:10;;;;;;;3.63;2.15;;;;;;;-145.41;100.00;58600.66;5007611;28;20424;-77
2023/07/23 02:49:37;;;;;;;4.20;2.28;;;;;;;-145.41;100.00;58600.66;5005629;28;20113;-78
2023/07/23 02:52:04;;;;;;;4.07;2.20;;;;;;;-145.41;100.00;58600.66;5008747;28;20036;-78
2023/07/23 02:54:30;;;;;;;3.63;2.15;;;;;;;-145.41;100.00;58600.66;5004356;28;20036;-78
2023/07/23 02:56:55;;;;;;;3.75;2.08;;;;;;;-145.41;100.00;58600.66;5004996;28;20038;-77
2023/07/23 02:59:21;;;;;;;3.78;2.13;;;;;;;-145.41;100.00;58600.66;5004940;28;20100;-78
2023/07/23 03:01:46;;;;;;;5.80;2.40;;;;;;;-145.41;100.00;58600.66;5005835;28;20046;-77
2023/07/23 03:04:13;;;;;;;3.47;1.70;;;;;;;-145.41;100.00;58600.66;5001519;28;20117;-77
2023/07/23 03:06:39;;;;;;;5.88;2.00;;;;;;;-145.41;100.00;58600.66;5008522;28;20117;-78
2023/07/23 03:09:04;;;;;;;3.60;2.40;;;;;;;-145.41;100.00;58600.66;5004073;28;20168;-78
2023/07/23 03:11:29;;;;;;;3.92;2.22;;;;;;;-145.41;100.00;58600.66;5008371;28;20037;-77
2023/07/23 03:13:55;;;;;;;6.40;2.53;;;;;;;-145.41;100.00;58600.66;5007129;28;20068;-78
2023/07/23 03:16:20;;;;;;;5.10;2.10;;;;;;;-145.41;100.00;58600.66;5001747;28;20496;-78
2023/07/23 03:18:45;;;;;;;4.68;2.00;;;;;;;-145.41;100.00;58600.66;5006231;28;20450;-78
2023/07/23 03:21:11;;;;;;;3.67;1.80;;;;;;;-145.41;100.00;58600.66;5007926;28;20108;-77
2023/07/23 03:23:36;;;;;;;4.40;2.22;;;;;;;-145.41;100.00;58600.66;5007895;28;20385;-77
2023/07/23 03:26:01;;;;;;;4.95;2.72;;;;;;;-145.41;100.00;58600.66;5007400;28;20497;-78
2023/07/23 03:28:27;;;;;;;4.50;2.40;;;;;;;-145.41;100.00;58600.66;5008994;28;20577;-77
2023/07/23 03:30:52;;;;;;;4.00;2.20;;;;;;;-145.41;100.00;58600.66;5008210;28;20488;-78
2023/07/23 03:33:17;;;;;;;4.07;2.30;;;;;;;-145.41;100.00;58600.66;5002566;28;20034;-78
2023/07/23 03:35:43;;;;;;;3.58;2.05;;;;;;;-145.41;100.00;58600.66;5008592;28;20078;-78
2023/07/23 03:38:08;;;;;;;4.97;2.05;;;;;;;-145.41;100.00;58600.66;5009397;28;20030;-78
2023/07/23 03:40:34;;;;;;;4.47;2.17;;;;;;;-145.41;100.00;58600.66;5005944;28;20496;-78
2023/07/23 03:42:59;;;;;;;2.58;1.50;;;;;;;-145.41;100.00;58600.66;5009551;28;20498;-78
2023/07/23 03:45:24;;;;;;;3.63;2.22;;;;;;;-145.41;100.00;58600.66;4996714;28;20045;-78
2023/07/23 03:47:50;;;;;;;5.20;2.20;;;;;;;-145.41;100.00;58600.66;5007949;28;20112;-77
2023/07/23 03:50:15;;;;;;;4.20;2.22;;;;;;;-145.41;100.00;58600.66;5004828;28;20117;-79
2023/07/23 03:52:40;;;;;;;3.75;2.35;;;;;;;-145.41;100.00;58600.66;5001721;28;20121;-78
2023/07/23 03:55:06;;;;;;;4.70;2.35;;;;;;;-145.41;100.00;58600.66;4998888;28;20061;-77
2023/07/23 03:57:31;;;;;;;3.40;1.83;;;;;;;-145.41;100.00;58600.66;5003644;28;20080;-78
2023/07/23 03:59:57;;;;;;;4.75;2.58;;;;;;;-145.41;100.00;58600.66;4999919;28;20455;-78
2023/07/23 04:02:22;;;;;;;4.68;2.20;;;;;;;-145.41;100.00;58600.66;5009129;28;20455;-78
2023/07/23 04:04:47;;;;;;;3.70;2.00;;;;;;;-145.41;100.00;58600.66;5005522;28;20104;-78
2023/07/23 04:07:12;;;;;;;4.22;2.15;;;;;;;-145.41;100.00;58600.66;5001264;28;20109;-78
2023/07/23 04:09:38;;;;;;;4.88;2.67;;;;;;;-145.41;100.00;58600.66;5003365;28;20092;-78
2023/07/23 04:12:03;;;;;;;4.03;2.30;;;;;;;-145.41;100.00;58600.66;5003673;28;20046;-79
2023/07/23 04:14:29;;;;;;;4.55;2.38;;;;;;;-145.41;100.00;58600.66;5002106;28;20061;-77
2023/07/23 04:16:55;;;;;;;4.70;2.65;;;;;;;-145.41;100.00;58600.66;5003625;28;20062;-78
2023/07/23 04:19:21;;;;;;;3.85;2.00;;;;;;;-145.41;100.00;58600.66;5005275;28;20084;-78
2023/07/23 04:21:46;;;;;;;3.72;2.28;;;;;;;-145.41;100.00;58600.66;5005059;28;20061;-78
2023/07/23 04:24:11;;;;;;;3.95;2.20;;;;;;;-145.41;100.00;58600.66;5003004;28;20073;-78
2023/07/23 04:26:37;;;;;;;5.32;2.40;;;;;;;-145.41;100.00;58600.66;5002616;28;20512;-78
2023/07/23 04:29:02;;;;;;;4.88;2.70;;;;;;;-145.41;100.00;58600.66;4999321;28;20569;-77
2023/07/23 04:31:28;;;;;;;4.00;2.38;;;;;;;-145.41;100.00;58600.66;5003611;28;20026;-78
2023/07/23 04:33:53;;;;;;;5.78;3.15;;;;;;;-145.41;100.00;58600.66;5000112;28;20543;-79
2023/07/23 04:36:18;;;;;;;4.22;2.55;;;;;;;-145.41;100.00;58600.66;5005785;28;20109;-79
2023/07/23 04:38:44;;;;;;;4.85;2.20;;;;;;;-145.41;100.00;58600.66;5005668;28;20038;-77
2023/07/23 04:41:10;;;;;;;3.72;2.13;;;;;;;-145.41;100.00;58600.66;5003538;28;20088;-78
2023/07/23 04:43:37;;;;;;;4.50;2.38;;;;;;;-145.41;100.00;58600.66;5000437;28;20466;-78
2023/07/23 04:46:06;;;;;;;3.25;1.80;;;;;;;-145.41;100.00;58600.66;5003753;28;20026;-78
2023/07/23 04:48:35;;;;;;;3.97;2.25;;;;;;;-145.41;100.00;58600.66;5002720;28;20382;-78
2023/07/23 04:51:06;;;;;;;3.47;2.08;;;;;;;-145.41;100.00;58600.66;5004570;28;20033;-78
2023/07/23 04:53:32;;;;;;;4.30;2.73;;;;;;;-145.41;100.00;58600.66;5000763;28;20084;-78
2023/07/23 04:55:59;;;;;;;4.22;2.50;;;;;;;-145.41;100.00;58600.66;5004772;28;20026;-78
2023/07/23 04:58:25;;;;;;;4.40;2.58;;;;;;;-145.41;100.00;58600.66;4995986;28;20041;-78
2023/07/23 05:00:51;;;;;;;4.22;2.33;;;;;;;-145.41;100.00;58600.66;5004361;28;20066;-78
2023/07/23 05:03:17;;;;;;;5.43;2.72;;;;;;;-145.41;100.00;58600.66;5005298;28;20497;-78
2023/07/23 05:05:46;;;;;;;4.57;2.40;;;;;;;-145.41;100.00;58600.66;5002550;28;20081;-78
2023/07/23 05:08:11;;;;;;;3.55;2.25;;;;;;;-145.41;100.00;58600.66;5004598;28;20038;-78
2023/07/23 05:10:38;;;;;;;4.22;2.60;;;;;;;-145.41;100.00;58600.66;4995134;28;20466;-78
2023/07/23 05:13:03;;;;;;;4.85;2.38;;;;;;;-145.41;100.00;58600.66;5001228;28;20026;-78
2023/07/23 05:15:29;;;;;;;5.80;2.33;;;;;;;-145.41;100.00;58600.66;5004021;28;20131;-78
2023/07/23 05:17:54;;;;;;;5.05;2.28;;;;;;;-145.41;100.00;58600.66;5005777;28;20416;-78
2023/07/23 05:20:19;;;;;;;4.22;2.38;;;;;;;-145.41;100.00;58600.66;5001425;28;20041;-78
2023/07/23 05:22:45;;;;;;;4.47;2.35;;;;;;;-145.41;100.00;58600.66;5003642;28;20131;-78
2023/07/23 05:25:10;;;;;;;4.45;2.60;;;;;;;-145.41;100.00;58600.66;5000395;28;20140;-78
2023/07/23 05:27:36;;;;;;;4.20;2.50;;;;;;;-145.41;100.00;58600.66;5002039;28;20038;-77
2023/07/23 05:30:03;;;;;;;4.35;2.60;;;;;;;-145.41;100.00;58600.66;5005901;28;20029;-79
2023/07/23 05:32:28;;;;;;;5.50;2.90;;;;;;;-145.41;100.00;58600.66;5003589;28;20100;-79
2023/07/23 05:34:54;;;;;;;6.05;3.33;;;;;;;-145.41;100.00;58600.66;5009581;28;20407;-78
2023/07/23 05:37:20;;;;;;;5.80;2.95;;;;;;;-145.41;100.00;58600.66;5002631;28;20440;-77
2023/07/23 05:39:45;;;;;;;5.10;2.85;;;;;;;-145.41;100.00;58600.66;5003828;28;20209;-78
2023/07/23 05:42:10;;;;;;;4.88;2.78;;;;;;;-145.41;100.00;58600.66;5002354;28;20497;-78
2023/07/23 05:44:36;;;;;;;6.00;2.97;;;;;;;-145.41;100.00;58600.66;5005380;28;20559;-77
2023/07/23 05:47:01;;;;;;;4.68;2.70;;;;;;;-145.41;100.00;58600.66;5044903;22;21010;-79
2023/07/23 05:49:28;;;;;;;3.55;2.35;;;;;;;-145.41;100.00;58600.66;4994496;28;20042;-79
2023/07/23 05:51:53;;;;;;;5.07;2.70;;;;;;;-145.41;100.00;58600.66;4995858;28;20046;-79
2023/07/23 05:54:19;;;;;;;4.60;2.90;;;;;;;-145.41;100.00;58600.66;4998780;28;20030;-79
2023/07/23 05:56:44;;;;;;;4.18;2.35;;;;;;;-145.41;100.00;58600.66;4997425;28;20057;-79
2023/07/23 05:59:10;;;;;;;5.70;2.28;;;;;;;-145.41;100.00;58600.66;4993754;28;20034;-79
2023/07/23 06:01:36;;;;;;;4.55;2.97;;;;;;;-145.41;100.00;58600.66;4994966;28;20068;-79
2023/07/23 06:04:01;;;;;;;3.85;2.17;;;;;;;-145.41;100.00;58600.66;5012926;28;20042;-79
2023/07/23 06:06:28;;;;;;;5.15;2.85;;;;;;;-145.41;100.00;58600.66;4993942;28;20088;-79
2023/07/23 06:08:53;;;;;;;3.50;2.05;;;;;;;-145.41;100.00;58600.66;4996030;28;20041;-79
2023/07/23 06:11:18;;;;;;;4.40;2.35;;;;;;;-145.41;100.00;58600.66;4995297;28;20045;-79
2023/07/23 06:13:43;;;;;;;4.70;2.47;;;;;;;-145.41;100.00;58600.66;4996632;28;20042;-79
2023/07/23 06:16:09;;;;;;;5.13;2.50;;;;;;;-145.41;100.00;58600.66;4995428;28;20045;-79
2023/07/23 06:18:35;;;;;;;6.90;2.45;;;;;;;-145.41;100.00;58600.66;4992328;28;20035;-79
2023/07/23 06:21:02;;;;;;;4.32;2.45;;;;;;;-145.41;100.00;58600.66;4998250;28;20440;-79
2023/07/23 06:23:27;;;;;;;5.65;2.35;;;;;;;-145.41;100.00;58600.66;4995227;28;20045;-79
2023/07/23 06:25:54;;;;;;;4.97;2.70;;;;;;;-145.41;100.00;58600.66;4997086;28;20026;-79
2023/07/23 06:28:20;;;;;;;4.43;2.70;;;;;;;-145.41;100.00;58600.66;4994916;28;20065;-79
2023/07/23 06:30:45;;;;;;;4.40;2.80;;;;;;;-145.41;100.00;58600.66;4997177;28;20038;-79
2023/07/23 06:33:10;;;;;;;5.50;2.60;;;;;;;-145.41;100.00;58600.66;4995423;28;20073;-79
2023/07/23 06:35:37;;;;;;;5.13;2.40;;;;;;;-145.41;100.00;58600.66;4996821;28;20042;-79
2023/07/23 06:38:03;;;;;;;4.75;2.33;;;;;;;-145.41;100.00;58600.66;4997994;28;20117;-79
2023/07/23 06:40:28;;;;;;;3.65;2.20;;;;;;;-145.41;100.00;58600.66;4995627;28;20476;-79
2023/07/23 06:42:54;;;;;;;5.63;2.50;;;;;;;-145.41;100.00;58600.66;4996647;28;20046;-79
2023/07/23 06:45:19;;;;;;;5.72;2.30;;;;;;;-145.41;100.00;58600.66;4994249;28;20030;-79
2023/07/23 06:47:45;;;;;;;6.90;3.03;;;;;;;-145.41;100.00;58600.66;4994433;28;20045;-79
2023/07/23 06:50:10;;;;;;;5.65;2.38;;;;;;;-145.41;100.00;58600.66;4984822;28;20035;-79
2023/07/23 06:52:35;;;;;;;5.50;2.90;;;;;;;-145.41;100.00;58600.66;4998001;28;20039;-79
2023/07/23 06:55:00;;;;;;;4.47;2.67;;;;;;;-145.41;100.00;58600.66;4976185;28;20045;-79
2023/07/23 06:57:26;;;;;;;5.13;2.88;;;;;;;-145.41;100.00;58600.66;4993305;28;20038;-79
2023/07/23 06:59:51;;;;;;;5.80;3.10;;;;;;;-145.41;100.00;58600.66;4994159;28;20591;-79
2023/07/23 07:02:16;;;;;;;7.18;3.17;;;;;;;-145.41;100.00;58600.66;4998185;28;20038;-79
2023/07/23 07:04:42;;;;;;;5.40;3.00;;;;;;;-145.41;100.00;58600.66;4996200;28;20044;-79
2023/07/23 07:07:07;;;;;;;5.55;2.85;;;;;;;-145.41;100.00;58600.66;4999740;28;20105;-79
2023/07/23 07:09:32;;;;;;;7.00;3.10;;;;;;;-145.41;100.00;58600.66;4997043;28;20046;-79
2023/07/23 07:11:58;;;;;;;4.72;2.78;;;;;;;-145.41;100.00;58600.66;4995243;28;20030;-79
2023/07/23 07:14:24;;;;;;;6.53;2.70;;;;;;;-145.41;100.00;58600.66;4994905;28;20093;-79
2023/07/23 07:16:49;;;;;;;7.57;2.42;;;;;;;-145.41;100.00;58600.66;4996667;28;20034;-79
2023/07/23 07:19:14;;;;;;;4.95;2.20;;;;;;;-145.41;100.00;58600.66;4997265;28;20040;-79
2023/07/23 07:21:40;;;;;;;4.47;2.65;;;;;;;-145.41;100.00;58600.66;4997351;28;20121;-79
2023/07/23 07:24:06;;;;;;;4.43;2.33;;;;;;;-145.41;100.00;58600.66;4978222;28;20057;-79
2023/07/23 07:26:32;;;;;;;3.75;2.17;;;;;;;-145.41;100.00;58600.66;4992415;28;20073;-79
2023/07/23 07:28:57;;;;;;;5.00;2.42;;;;;;;-145.41;100.00;58600.66;5000301;28;20053;-79
2023/07/23 07:31:22;;;;;;;4.43;2.30;;;;;;;-145.41;100.00;58600.66;5000769;28;20505;-79
2023/07/23 07:33:48;;;;;;;5.30;2.20;;;;;;;-145.41;100.00;58600.66;5000401;28;20041;-79
2023/07/23 07:36:13;;;;;;;3.53;2.17;;;;;;;-145.41;100.00;58600.66;5001151;28;20043;-79
2023/07/23 07:38:39;;;;;;;4.53;2.33;;;;;;;-145.41;100.00;58600.66;4999754;28;20058;-79
2023/07/23 07:41:04;;;;;;;3.95;2.33;;;;;;;-145.41;100.00;58600.66;5000362;28;20402;-79
2023/07/23 07:43:29;;;;;;;4.30;2.55;;;;;;;-145.41;100.00;58600.66;5002350;28;20062;-79
2023/07/23 07:45:59;;;;;;;3.45;2.15;;;;;;;-145.41;100.00;58600.66;4999168;28;20504;-79
2023/07/23 07:48:26;;;;;;;4.28;2.72;;;;;;;-145.41;100.00;58600.66;5000558;28;20034;-79
2023/07/23 07:51:03;;;;;;;4.28;2.25;;;;;;;-145.41;100.00;58600.66;4996320;28;20046;-79
2023/07/23 07:53:28;;;;;;;5.90;2.28;;;;;;;-145.41;100.00;58600.66;4998682;28;20081;-79
2023/07/23 07:55:54;;;;;;;3.92;2.33;;;;;;;-145.41;100.00;58600.66;4996553;28;20035;-79
2023/07/23 07:58:24;;;;;;;5.82;2.55;;;;;;;-145.41;100.00;58600.66;5002227;28;20515;-79
2023/07/23 08:01:01;;;;;;;3.97;2.40;;;;;;;-145.41;100.00;58600.66;4999752;28;20070;-79
2023/07/23 08:03:28;;;;;;;4.25;1.85;;;;;;;-145.41;100.00;58600.66;4995725;28;20416;-79
2023/07/23 08:05:55;;;;;;;4.40;2.28;;;;;;;-145.41;100.00;58600.66;4999893;28;20374;-79
2023/07/23 08:08:25;;;;;;;4.38;2.03;;;;;;;-145.41;100.00;58600.66;4998484;28;20118;-79
2023/07/23 08:10:53;;;;;;;4.00;2.20;;;;;;;-145.41;100.00;58600.66;4995073;28;20064;-79
2023/07/23 08:13:19;;;;;;;4.68;1.90;;;;;;;-145.41;100.00;58600.66;4982465;28;20039;-79
2023/07/23 08:15:45;;;;;;;4.00;2.30;;;;;;;-145.41;100.00;58600.66;4999787;28;20041;-79
2023/07/23 08:18:11;;;;;;;4.13;2.40;;;;;;;-145.41;100.00;58600.66;4996909;28;20473;-79
2023/07/23 08:20:37;;;;;;;4.60;2.30;;;;;;;-145.41;100.00;58600.66;4998822;28;20066;-79
2023/07/23 08:23:02;;;;;;;5.05;2.45;;;;;;;-145.41;100.00;58600.66;4998559;28;20563;-79
2023/07/23 08:25:29;;;;;;;6.20;2.40;;;;;;;-145.41;100.00;58600.66;4997712;28;20034;-79
2023/07/23 08:28:01;;;;;;;4.30;2.20;;;;;;;-145.41;100.00;58600.66;4994245;28;20038;-79
2023/07/23 08:30:30;;;;;;;;;;;;;;;-145.41;100.00;58600.66;4997640;28;20116;-79
2023/07/23 08:32:57;;;;;;;5.30;2.30;;;;;;;-145.41;100.00;58600.66;4997118;28;20384;-79
2023/07/23 08:35:24;;;;;;;3.85;2.20;;;;;;;-145.41;100.00;58600.66;4997724;28;20044;-79
2023/07/23 08:37:49;;;;;;;3.58;2.03;;;;;;;-145.41;100.00;58600.66;4995301;28;20572;-79
2023/07/23 08:40:15;;;;;;;4.22;2.17;;;;;;;-145.41;100.00;58600.66;4993163;28;20034;-79
2023/07/23 08:42:53;;;;;;;3.30;1.95;;;;;;;-145.41;100.00;58600.66;4997235;28;20038;-79
2023/07/23 08:45:54;;;;;;;3.78;2.10;;;;;;;-145.41;100.00;58600.66;4996529;28;20069;-79
2023/07/23 08:48:20;;;;;;;5.20;2.40;;;;;;;-145.41;100.00;58600.66;4995411;28;20030;-79
2023/07/23 08:50:48;;;;;;;3.92;2.28;;;;;;;-145.41;100.00;58600.66;4995461;28;20625;-79
2023/07/23 08:53:15;;;;;;;3.90;2.30;;;;;;;-145.41;100.00;58600.66;4995294;28;20034;-79
2023/07/23 08:55:43;;;;;;;4.70;2.35;;;;;;;-145.41;100.00;58600.66;4995748;28;20034;-79
2023/07/23 08:58:13;;;;;;;4.43;1.95;;;;;;;-145.41;100.00;58600.66;4994359;28;20030;-79
2023/07/23 09:00:41;;;;;;;4.53;2.28;;;;;;;-145.41;100.00;58600.66;4995794;28;20456;-79
2023/07/23 09:03:08;;;;;;;6.22;2.25;;;;;;;-145.41;100.00;58600.66;4981690;28;20121;-79
2023/07/23 09:05:33;;;;;;;4.90;2.08;;;;;;;-145.41;100.00;58600.66;4997186;28;20038;-79
2023/07/23 09:07:59;;;;;;;3.60;2.05;;;;;;;-145.41;100.00;58600.66;4999302;28;20030;-79
2023/07/23 09:10:24;;;;;;;5.45;2.50;;;;;;;-145.41;100.00;58600.66;4996077;28;20038;-79
2023/07/23 09:12:49;;;;;;;5.10;2.47;;;;;;;-145.41;100.00;58600.66;4997559;28;20062;-80
2023/07/23 09:15:15;;;;;;;3.70;2.13;;;;;;;-145.41;100.00;58600.66;4996094;28;20030;-79
2023/07/23 09:17:41;;;;;;;5.22;2.65;;;;;;;-145.41;100.00;58600.66;4995290;28;20067;-79
2023/07/23 09:20:10;;;;;;;3.65;2.10;;;;;;;-145.41;100.00;58600.66;4995321;28;20590;-80
2023/07/23 09:22:35;;;;;;;4.70;2.50;;;;;;;-145.41;100.00;58600.66;4995343;28;20089;-79
2023/07/23 09:25:01;;;;;;;4.97;2.30;;;;;;;-145.41;100.00;58600.66;4996621;28;20070;-79
2023/07/23 09:27:42;;;;;;;4.78;1.90;;;;;;;-145.41;100.00;58600.66;4995528;28;20037;-80
2023/07/23 09:30:17;;;;;;;4.72;2.15;;;;;;;-145.41;100.00;58600.66;4995067;28;20068;-79
2023/07/23 09:32:42;;;;;;;4.82;2.35;;;;;;;-145.41;100.00;58600.66;4997493;28;20042;-79
2023/07/23 09:35:08;;;;;;;3.97;2.20;;;;;;;-145.41;100.00;58600.66;4996092;28;20469;-79
2023/07/23 09:37:35;;;;;;;3.83;2.35;;;;;;;-145.41;100.00;58600.66;4995859;28;20054;-79
2023/07/23 09:40:00;;;;;;;5.90;2.55;;;;;;;-145.41;100.00;58600.66;4990097;28;20042;-79
2023/07/23 09:42:25;;;;;;;4.60;2.15;;;;;;;-145.41;100.00;58600.66;4997023;28;20563;-79
2023/07/23 09:44:51;;;;;;;3.45;1.95;;;;;;;-145.41;100.00;58600.66;4995002;28;20081;-79
2023/07/23 09:47:23;;;;;;;3.67;2.10;;;;;;;-145.41;100.00;58600.66;4996823;28;20034;-79
2023/07/23 09:49:48;;;;;;;5.65;2.10;;;;;;;-145.41;100.00;58600.66;4995532;28;20045;-79
2023/07/23 09:52:13;;;;;;;4.53;2.00;;;;;;;-145.41;100.00;58600.66;4995690;28;20034;-80
2023/07/23 09:54:40;;;;;;;3.95;2.10;;;;;;;-145.41;100.00;58600.66;4996007;28;20026;-80
2023/07/23 09:57:07;;;;;;;4.05;1.90;;;;;;;-145.41;100.00;58600.66;4995158;28;20146;-80
2023/07/23 09:59:32;;;;;;;3.78;1.80;;;;;;;-145.41;100.00;58600.66;4992833;28;20113;-80
2023/07/23 10:01:59;;;;;;;2.72;1.50;;;;;;;-145.41;100.00;58600.66;4994534;28;20475;-79
2023/07/23 10:04:28;;;;;;;3.10;1.90;;;;;;;-145.41;100.00;58600.66;4992495;28;20042;-80
2023/07/23 10:06:55;;;;;;;3.58;2.08;;;;;;;-145.41;100.00;58600.66;4988998;28;20026;-80
2023/07/23 10:09:20;;;;;;;3.88;2.10;;;;;;;-145.41;100.00;58600.66;4994533;28;20046;-79
2023/07/23 10:11:46;;;;;;;4.82;1.67;;;;;;;-145.41;100.00;58600.66;5002200;28;20042;-80
2023/07/23 10:14:11;;;;;;;4.60;1.77;;;;;;;-145.41;100.00;58600.66;4995240;28;20482;-80
2023/07/23 10:16:39;;;;;;;3.58;1.90;;;;;;;-145.41;100.00;58600.66;4994734;28;20509;-80
2023/07/23 10:19:05;;;;;;;2.78;1.83;;;;;;;-145.41;100.00;58600.66;5001120;28;20498;-80
2023/07/23 10:21:33;;;;;;;3.88;1.63;;;;;;;-145.41;100.00;58600.66;4994478;28;20038;-80
2023/07/23 10:23:59;;;;;;;2.95;1.60;;;;;;;-145.41;100.00;58600.66;4994677;28;20068;-80
2023/07/23 10:26:28;;;;;;;5.50;1.90;;;;;;;-145.41;100.00;58600.66;4992902;28;20056;-80
2023/07/23 10:29:11;;;;;;;3.50;2.10;;;;;;;-145.41;100.00;58600.66;4994982;28;20038;-79
2023/07/23 10:31:40;;;;;;;4.30;2.47;;;;;;;-145.41;100.00;58600.66;4992830;28;20114;-79
2023/07/23 10:34:27;;;;;;;2.97;1.70;;;;;;;-145.41;100.00;58600.66;4992183;28;20039;-80
2023/07/23 10:37:16;;;;;;;4.15;1.70;;;;;;;-145.41;100.00;58600.66;4996338;28;20041;-80
2023/07/23 10:39:47;;;;;;;4.00;1.90;;;;;;;-145.41;100.00;58600.66;4992331;28;20096;-80
2023/07/23 10:42:41;;;;;;;2.60;1.70;;;;;;;-145.41;100.00;58600.66;4994900;28;20037;-80
2023/07/23 10:45:22;;;;;;;4.88;1.83;;;;;;;-145.41;100.00;58600.66;4989452;28;20046;-80
2023/07/23 10:47:51;;;;;;;3.20;1.45;;;;;;;-145.41;100.00;58600.66;4980615;28;20047;-80
2023/07/23 10:50:18;;;;;;;3.20;1.73;;;;;;;-145.41;100.00;58600.66;4992728;28;20060;-80
2023/07/23 10:52:49;;;;;;;5.53;1.60;;;;;;;-145.41;100.00;58600.66;4992639;28;20109;-80
2023/07/23 10:55:47;;;;;;;3.03;1.83;;;;;;;-145.41;100.00;58600.66;4990188;28;20501;-80
2023/07/23 10:58:21;;;;;;;4.03;1.90;;;;;;;-145.41;100.00;58600.66;4992810;28;20030;-80
2023/07/23 11:00:52;;;;;;;4.38;1.95;;;;;;;-145.41;100.00;58600.66;4992119;28;20035;-80
2023/07/23 11:03:20;;;;;;;6.97;1.95;;;;;;;-145.41;100.00;58600.66;4995342;28;20093;-80
2023/07/23 11:05:46;;;;;;;4.75;1.80;;;;;;;-145.41;100.00;58600.66;4997991;28;20117;-80
2023/07/23 11:08:19;;;;;;;6.10;2.08;;;;;;;-145.41;100.00;58600.66;4998667;28;20037;-80